sensor_id;sensor_type;location;lat;lon;timestamp;temperature;humidity
57552;DHT22;43379;48.160;14.036;2022-08-19T00:01:47;22.20;99.90
57552;DHT22;43379;48.160;14.036;2022-08-19T00:04:14;22.10;99.90
57552;DHT22;43379;48.160;14.036;2022-08-19T00:06:42;22.10;99.90
57552;DHT22;43379;48.160;14.036;2022-08-19T00:09:11;22.00;99.90
57552;DHT22;43379;48.160;14.036;2022-08-19T00:11:37;22.10;99.90
57552;DHT22;43379;48.160;14.036;2022-08-19T00:14:07;22.00;99.90
57552;DHT22;43379;48.160;14.036;2022-08-19T00:16:35;22.10;99.90
57552;DHT22;43379;48.160;14.036;2022-08-19T00:19:01;22.10;99.90
57552;DHT22;43379;48.160;14.036;2022-08-19T00:21:27;22.10;99.90
57552;DHT22;43379;48.160;14.036;2022-08-19T00:23:54;22.10;99.90
57552;DHT22;43379;48.160;14.036;2022-08-19T00:26:20;22.10;99.90
57552;DHT22;43379;48.160;14.036;2022-08-19T00:28:46;22.10;99.90
57552;DHT22;43379;48.160;14.036;2022-08-19T00:31:12;22.20;99.90
57552;DHT22;43379;48.160;14.036;2022-08-19T00:33:38;22.10;99.90
57552;DHT22;43379;48.160;14.036;2022-08-19T00:36:06;22.10;99.90
57552;DHT22;43379;48.160;14.036;2022-08-19T00:38:37;22.30;99.90
57552;DHT22;43379;48.160;14.036;2022-08-19T00:41:07;22.30;99.90
57552;DHT22;43379;48.160;14.036;2022-08-19T00:43:33;22.30;99.90
57552;DHT22;43379;48.160;14.036;2022-08-19T00:45:59;22.30;99.90
57552;DHT22;43379;48.160;14.036;2022-08-19T00:48:24;22.30;99.90
57552;DHT22;43379;48.160;14.036;2022-08-19T00:50:52;22.30;99.90
57552;DHT22;43379;48.160;14.036;2022-08-19T00:53:23;22.30;99.90
57552;DHT22;43379;48.160;14.036;2022-08-19T00:55:51;22.40;99.90
57552;DHT22;43379;48.160;14.036;2022-08-19T00:58:20;22.40;99.90
57552;DHT22;43379;48.160;14.036;2022-08-19T01:00:47;22.40;99.90
57552;DHT22;43379;48.160;14.036;2022-08-19T01:03:17;22.40;99.90
57552;DHT22;43379;48.160;14.036;2022-08-19T01:05:44;22.50;99.90
57552;DHT22;43379;48.160;14.036;2022-08-19T01:08:10;22.40;99.90
57552;DHT22;43379;48.160;14.036;2022-08-19T01:10:43;22.40;99.90
57552;DHT22;43379;48.160;14.036;2022-08-19T01:13:10;22.40;99.90
57552;DHT22;43379;48.160;14.036;2022-08-19T01:15:46;22.40;99.90
57552;DHT22;43379;48.160;14.036;2022-08-19T01:18:17;22.40;99.90
57552;DHT22;43379;48.160;14.036;2022-08-19T01:20:43;22.40;99.90
57552;DHT22;43379;48.160;14.036;2022-08-19T01:23:09;22.30;99.90
57552;DHT22;43379;48.160;14.036;2022-08-19T01:25:41;22.30;99.90
57552;DHT22;43379;48.160;14.036;2022-08-19T01:28:18;22.20;99.90
57552;DHT22;43379;48.160;14.036;2022-08-19T01:30:45;22.20;99.90
57552;DHT22;43379;48.160;14.036;2022-08-19T01:33:12;22.10;99.90
57552;DHT22;43379;48.160;14.036;2022-08-19T01:35:38;22.10;99.90
57552;DHT22;43379;48.160;14.036;2022-08-19T01:38:07;22.10;99.90
57552;DHT22;43379;48.160;14.036;2022-08-19T01:40:36;22.10;99.90
57552;DHT22;43379;48.160;14.036;2022-08-19T01:43:04;22.10;99.90
57552;DHT22;43379;48.160;14.036;2022-08-19T01:45:33;22.10;99.90
57552;DHT22;43379;48.160;14.036;2022-08-19T01:47:59;22.20;99.90
57552;DHT22;43379;48.160;14.036;2022-08-19T01:50:25;22.20;99.90
57552;DHT22;43379;48.160;14.036;2022-08-19T01:52:52;22.20;99.90
57552;DHT22;43379;48.160;14.036;2022-08-19T01:55:20;22.20;99.90
57552;DHT22;43379;48.160;14.036;2022-08-19T01:57:54;22.20;99.90
57552;DHT22;43379;48.160;14.036;2022-08-19T02:00:23;22.10;99.90
57552;DHT22;43379;48.160;14.036;2022-08-19T02:02:48;22.00;99.90
57552;DHT22;43379;48.160;14.036;2022-08-19T02:05:15;21.90;99.90
57552;DHT22;43379;48.160;14.036;2022-08-19T02:07:43;22.00;99.90
57552;DHT22;43379;48.160;14.036;2022-08-19T02:10:13;22.00;99.90
57552;DHT22;43379;48.160;14.036;2022-08-19T02:12:40;22.10;99.90
57552;DHT22;43379;48.160;14.036;2022-08-19T02:15:06;22.20;99.90
57552;DHT22;43379;48.160;14.036;2022-08-19T02:17:33;22.10;99.90
57552;DHT22;43379;48.160;14.036;2022-08-19T02:19:58;22.00;99.90
57552;DHT22;43379;48.160;14.036;2022-08-19T02:22:25;21.90;99.90
57552;DHT22;43379;48.160;14.036;2022-08-19T02:24:52;21.90;99.90
57552;DHT22;43379;48.160;14.036;2022-08-19T02:27:18;22.00;99.90
57552;DHT22;43379;48.160;14.036;2022-08-19T02:29:46;22.00;99.90
57552;DHT22;43379;48.160;14.036;2022-08-19T02:34:44;22.10;99.90
57552;DHT22;43379;48.160;14.036;2022-08-19T02:37:09;22.10;99.90
57552;DHT22;43379;48.160;14.036;2022-08-19T02:39:55;21.90;99.90
57552;DHT22;43379;48.160;14.036;2022-08-19T02:42:21;21.90;99.90
57552;DHT22;43379;48.160;14.036;2022-08-19T02:44:47;21.90;99.90
57552;DHT22;43379;48.160;14.036;2022-08-19T02:47:13;21.90;99.90
57552;DHT22;43379;48.160;14.036;2022-08-19T02:49:41;22.00;99.90
57552;DHT22;43379;48.160;14.036;2022-08-19T02:52:07;22.00;99.90
57552;DHT22;43379;48.160;14.036;2022-08-19T02:54:32;22.00;99.90
57552;DHT22;43379;48.160;14.036;2022-08-19T02:56:58;22.00;99.90
57552;DHT22;43379;48.160;14.036;2022-08-19T02:59:24;21.90;99.90
57552;DHT22;43379;48.160;14.036;2022-08-19T03:01:51;21.90;99.90
57552;DHT22;43379;48.160;14.036;2022-08-19T03:04:17;21.80;99.90
57552;DHT22;43379;48.160;14.036;2022-08-19T03:06:46;21.80;99.90
57552;DHT22;43379;48.160;14.036;2022-08-19T03:09:12;21.90;99.90
57552;DHT22;43379;48.160;14.036;2022-08-19T03:11:38;21.90;99.90
57552;DHT22;43379;48.160;14.036;2022-08-19T03:14:05;22.00;99.90
57552;DHT22;43379;48.160;14.036;2022-08-19T03:16:33;22.00;99.90
57552;DHT22;43379;48.160;14.036;2022-08-19T03:19:00;22.00;99.90
57552;DHT22;43379;48.160;14.036;2022-08-19T03:21:29;22.00;99.90
57552;DHT22;43379;48.160;14.036;2022-08-19T03:23:57;22.00;99.90
57552;DHT22;43379;48.160;14.036;2022-08-19T03:26:24;22.00;99.90
57552;DHT22;43379;48.160;14.036;2022-08-19T03:28:50;22.00;99.90
57552;DHT22;43379;48.160;14.036;2022-08-19T03:31:18;22.00;99.90
57552;DHT22;43379;48.160;14.036;2022-08-19T03:33:45;22.00;99.90
57552;DHT22;43379;48.160;14.036;2022-08-19T03:36:17;22.10;99.90
57552;DHT22;43379;48.160;14.036;2022-08-19T03:38:49;22.10;99.90
57552;DHT22;43379;48.160;14.036;2022-08-19T03:41:20;22.10;99.90
57552;DHT22;43379;48.160;14.036;2022-08-19T03:43:46;22.10;99.90
57552;DHT22;43379;48.160;14.036;2022-08-19T03:46:18;22.00;99.90
57552;DHT22;43379;48.160;14.036;2022-08-19T03:48:50;22.00;99.90
57552;DHT22;43379;48.160;14.036;2022-08-19T03:51:29;22.00;99.90
57552;DHT22;43379;48.160;14.036;2022-08-19T03:53:57;22.00;99.90
57552;DHT22;43379;48.160;14.036;2022-08-19T03:56:24;22.00;99.90
57552;DHT22;43379;48.160;14.036;2022-08-19T03:58:54;22.00;99.90
57552;DHT22;43379;48.160;14.036;2022-08-19T04:01:22;22.00;99.90
57552;DHT22;43379;48.160;14.036;2022-08-19T04:03:49;22.10;99.90
57552;DHT22;43379;48.160;14.036;2022-08-19T04:06:36;22.10;99.90
57552;DHT22;43379;48.160;14.036;2022-08-19T04:09:03;22.10;99.90
57552;DHT22;43379;48.160;14.036;2022-08-19T04:11:35;22.10;99.90
57552;DHT22;43379;48.160;14.036;2022-08-19T04:14:01;22.00;99.90
57552;DHT22;43379;48.160;14.036;2022-08-19T04:16:27;21.90;99.90
57552;DHT22;43379;48.160;14.036;2022-08-19T04:18:59;21.90;99.90
57552;DHT22;43379;48.160;14.036;2022-08-19T04:21:26;22.00;99.90
57552;DHT22;43379;48.160;14.036;2022-08-19T04:23:53;21.90;99.90
57552;DHT22;43379;48.160;14.036;2022-08-19T04:26:27;22.00;99.90
57552;DHT22;43379;48.160;14.036;2022-08-19T04:28:54;22.00;99.90
57552;DHT22;43379;48.160;14.036;2022-08-19T04:31:25;22.00;99.90
57552;DHT22;43379;48.160;14.036;2022-08-19T04:33:57;22.10;99.90
57552;DHT22;43379;48.160;14.036;2022-08-19T04:36:30;22.10;99.90
57552;DHT22;43379;48.160;14.036;2022-08-19T04:38:57;22.20;99.90
57552;DHT22;43379;48.160;14.036;2022-08-19T04:41:24;22.20;99.90
57552;DHT22;43379;48.160;14.036;2022-08-19T04:44:09;22.20;99.90
57552;DHT22;43379;48.160;14.036;2022-08-19T04:46:35;22.20;99.90
57552;DHT22;43379;48.160;14.036;2022-08-19T04:49:03;22.30;99.90
57552;DHT22;43379;48.160;14.036;2022-08-19T04:51:31;22.20;99.90
57552;DHT22;43379;48.160;14.036;2022-08-19T04:53:57;22.20;99.90
57552;DHT22;43379;48.160;14.036;2022-08-19T04:56:24;22.20;99.90
57552;DHT22;43379;48.160;14.036;2022-08-19T04:58:52;22.20;99.90
57552;DHT22;43379;48.160;14.036;2022-08-19T05:01:20;22.20;99.90
57552;DHT22;43379;48.160;14.036;2022-08-19T05:03:46;22.20;99.90
57552;DHT22;43379;48.160;14.036;2022-08-19T05:06:15;22.20;99.90
57552;DHT22;43379;48.160;14.036;2022-08-19T05:08:42;22.20;99.90
57552;DHT22;43379;48.160;14.036;2022-08-19T05:11:30;22.20;99.90
57552;DHT22;43379;48.160;14.036;2022-08-19T05:13:56;22.20;99.90
57552;DHT22;43379;48.160;14.036;2022-08-19T05:16:23;22.10;99.90
57552;DHT22;43379;48.160;14.036;2022-08-19T05:18:50;22.20;99.90
57552;DHT22;43379;48.160;14.036;2022-08-19T05:21:35;22.20;99.90
57552;DHT22;43379;48.160;14.036;2022-08-19T05:24:20;22.30;99.90
57552;DHT22;43379;48.160;14.036;2022-08-19T05:26:49;22.30;99.90
57552;DHT22;43379;48.160;14.036;2022-08-19T05:29:18;22.30;99.90
57552;DHT22;43379;48.160;14.036;2022-08-19T05:31:44;22.30;99.90
57552;DHT22;43379;48.160;14.036;2022-08-19T05:34:11;22.20;99.90
57552;DHT22;43379;48.160;14.036;2022-08-19T05:36:40;22.20;99.90
57552;DHT22;43379;48.160;14.036;2022-08-19T05:39:07;22.20;99.90
57552;DHT22;43379;48.160;14.036;2022-08-19T05:41:33;22.20;99.90
57552;DHT22;43379;48.160;14.036;2022-08-19T05:44:02;22.20;99.90
57552;DHT22;43379;48.160;14.036;2022-08-19T05:46:28;22.20;99.90
57552;DHT22;43379;48.160;14.036;2022-08-19T05:48:55;22.30;99.90
57552;DHT22;43379;48.160;14.036;2022-08-19T05:51:22;22.30;99.90
57552;DHT22;43379;48.160;14.036;2022-08-19T05:53:49;22.30;99.90
57552;DHT22;43379;48.160;14.036;2022-08-19T05:56:15;22.30;99.90
57552;DHT22;43379;48.160;14.036;2022-08-19T05:58:42;22.40;99.90
57552;DHT22;43379;48.160;14.036;2022-08-19T06:01:16;22.40;99.90
57552;DHT22;43379;48.160;14.036;2022-08-19T06:03:43;22.50;99.90
57552;DHT22;43379;48.160;14.036;2022-08-19T06:06:10;22.50;99.90
57552;DHT22;43379;48.160;14.036;2022-08-19T06:08:36;22.50;99.90
57552;DHT22;43379;48.160;14.036;2022-08-19T06:11:33;22.60;99.90
57552;DHT22;43379;48.160;14.036;2022-08-19T06:14:02;22.80;99.90
57552;DHT22;43379;48.160;14.036;2022-08-19T06:16:28;22.90;99.90
57552;DHT22;43379;48.160;14.036;2022-08-19T06:19:02;22.90;99.90
57552;DHT22;43379;48.160;14.036;2022-08-19T06:21:28;23.00;99.90
57552;DHT22;43379;48.160;14.036;2022-08-19T06:23:56;23.10;99.90
57552;DHT22;43379;48.160;14.036;2022-08-19T06:26:23;23.10;99.90
57552;DHT22;43379;48.160;14.036;2022-08-19T06:28:49;23.10;99.90
57552;DHT22;43379;48.160;14.036;2022-08-19T06:31:18;23.20;99.90
57552;DHT22;43379;48.160;14.036;2022-08-19T06:33:46;23.30;99.90
57552;DHT22;43379;48.160;14.036;2022-08-19T06:36:25;23.40;99.90
57552;DHT22;43379;48.160;14.036;2022-08-19T06:38:55;23.30;99.90
57552;DHT22;43379;48.160;14.036;2022-08-19T06:41:24;23.40;99.90
57552;DHT22;43379;48.160;14.036;2022-08-19T06:43:50;23.40;99.90
57552;DHT22;43379;48.160;14.036;2022-08-19T06:46:17;23.50;99.90
57552;DHT22;43379;48.160;14.036;2022-08-19T06:48:45;23.60;99.90
57552;DHT22;43379;48.160;14.036;2022-08-19T06:51:13;23.90;99.90
57552;DHT22;43379;48.160;14.036;2022-08-19T06:53:41;24.10;99.90
57552;DHT22;43379;48.160;14.036;2022-08-19T06:56:13;24.30;99.90
57552;DHT22;43379;48.160;14.036;2022-08-19T06:58:38;24.50;99.90
57552;DHT22;43379;48.160;14.036;2022-08-19T07:01:05;24.60;99.90
57552;DHT22;43379;48.160;14.036;2022-08-19T07:03:33;24.90;99.90
57552;DHT22;43379;48.160;14.036;2022-08-19T07:06:10;24.90;99.90
57552;DHT22;43379;48.160;14.036;2022-08-19T07:08:38;24.90;99.90
57552;DHT22;43379;48.160;14.036;2022-08-19T07:11:11;24.90;99.90
57552;DHT22;43379;48.160;14.036;2022-08-19T07:13:39;24.90;99.90
57552;DHT22;43379;48.160;14.036;2022-08-19T07:16:13;24.70;99.90
57552;DHT22;43379;48.160;14.036;2022-08-19T07:18:40;24.70;99.90
57552;DHT22;43379;48.160;14.036;2022-08-19T07:21:11;24.50;99.90
57552;DHT22;43379;48.160;14.036;2022-08-19T07:23:38;24.40;99.90
57552;DHT22;43379;48.160;14.036;2022-08-19T07:26:13;24.20;99.90
57552;DHT22;43379;48.160;14.036;2022-08-19T07:28:39;24.10;99.90
57552;DHT22;43379;48.160;14.036;2022-08-19T07:31:11;24.10;99.90
57552;DHT22;43379;48.160;14.036;2022-08-19T07:33:39;24.00;99.90
57552;DHT22;43379;48.160;14.036;2022-08-19T07:36:07;23.90;99.90
57552;DHT22;43379;48.160;14.036;2022-08-19T07:38:34;23.90;99.90
57552;DHT22;43379;48.160;14.036;2022-08-19T07:41:00;23.90;99.90
57552;DHT22;43379;48.160;14.036;2022-08-19T07:43:27;23.90;99.90
57552;DHT22;43379;48.160;14.036;2022-08-19T07:45:54;23.80;99.90
57552;DHT22;43379;48.160;14.036;2022-08-19T07:48:26;23.80;99.90
57552;DHT22;43379;48.160;14.036;2022-08-19T07:50:54;23.90;99.90
57552;DHT22;43379;48.160;14.036;2022-08-19T07:53:24;24.00;99.90
57552;DHT22;43379;48.160;14.036;2022-08-19T07:55:51;24.20;99.90
57552;DHT22;43379;48.160;14.036;2022-08-19T07:58:20;24.40;99.90
57552;DHT22;43379;48.160;14.036;2022-08-19T08:00:48;24.40;99.90
57552;DHT22;43379;48.160;14.036;2022-08-19T08:03:17;24.70;99.90
57552;DHT22;43379;48.160;14.036;2022-08-19T08:05:43;25.10;99.90
57552;DHT22;43379;48.160;14.036;2022-08-19T08:08:29;25.40;99.90
57552;DHT22;43379;48.160;14.036;2022-08-19T08:11:13;25.60;99.90
57552;DHT22;43379;48.160;14.036;2022-08-19T08:13:39;26.10;99.90
57552;DHT22;43379;48.160;14.036;2022-08-19T08:16:06;26.40;98.00
57552;DHT22;43379;48.160;14.036;2022-08-19T08:18:32;26.40;97.70
57552;DHT22;43379;48.160;14.036;2022-08-19T08:20:59;26.80;98.10
57552;DHT22;43379;48.160;14.036;2022-08-19T08:23:26;27.40;96.40
57552;DHT22;43379;48.160;14.036;2022-08-19T08:25:54;27.90;96.10
57552;DHT22;43379;48.160;14.036;2022-08-19T08:28:20;28.10;95.80
57552;DHT22;43379;48.160;14.036;2022-08-19T08:30:47;28.70;95.30
57552;DHT22;43379;48.160;14.036;2022-08-19T08:33:20;29.20;94.20
57552;DHT22;43379;48.160;14.036;2022-08-19T08:35:47;29.70;92.80
57552;DHT22;43379;48.160;14.036;2022-08-19T08:38:13;30.20;91.90
57552;DHT22;43379;48.160;14.036;2022-08-19T08:40:48;30.40;90.80
57552;DHT22;43379;48.160;14.036;2022-08-19T08:48:34;31.20;90.00
57552;DHT22;43379;48.160;14.036;2022-08-19T08:51:04;30.90;86.40
57552;DHT22;43379;48.160;14.036;2022-08-19T08:53:30;30.70;88.30
57552;DHT22;43379;48.160;14.036;2022-08-19T08:55:57;30.50;87.90
57552;DHT22;43379;48.160;14.036;2022-08-19T08:58:32;30.60;88.00
57552;DHT22;43379;48.160;14.036;2022-08-19T09:01:09;30.30;87.90
57552;DHT22;43379;48.160;14.036;2022-08-19T09:03:37;30.00;86.80
57552;DHT22;43379;48.160;14.036;2022-08-19T09:06:34;29.90;86.60
57552;DHT22;43379;48.160;14.036;2022-08-19T09:09:55;29.90;85.60
57552;DHT22;43379;48.160;14.036;2022-08-19T09:15:04;30.50;87.80
57552;DHT22;43379;48.160;14.036;2022-08-19T09:17:31;30.50;85.70
57552;DHT22;43379;48.160;14.036;2022-08-19T09:22:34;29.90;86.40
57552;DHT22;43379;48.160;14.036;2022-08-19T09:25:01;29.50;88.10
57552;DHT22;43379;48.160;14.036;2022-08-19T09:27:36;29.10;89.40
57552;DHT22;43379;48.160;14.036;2022-08-19T09:30:05;28.70;90.50
57552;DHT22;43379;48.160;14.036;2022-08-19T09:32:31;28.50;90.90
57552;DHT22;43379;48.160;14.036;2022-08-19T09:35:00;28.40;91.50
57552;DHT22;43379;48.160;14.036;2022-08-19T09:37:27;28.10;91.60
57552;DHT22;43379;48.160;14.036;2022-08-19T09:39:53;28.00;91.50
57552;DHT22;43379;48.160;14.036;2022-08-19T09:42:19;28.00;92.00
57552;DHT22;43379;48.160;14.036;2022-08-19T09:44:46;27.90;92.30
57552;DHT22;43379;48.160;14.036;2022-08-19T09:47:12;27.80;92.20
57552;DHT22;43379;48.160;14.036;2022-08-19T09:49:38;27.70;92.00
57552;DHT22;43379;48.160;14.036;2022-08-19T09:52:08;27.80;91.80
57552;DHT22;43379;48.160;14.036;2022-08-19T09:54:34;27.60;91.90
57552;DHT22;43379;48.160;14.036;2022-08-19T09:57:00;27.60;92.30
57552;DHT22;43379;48.160;14.036;2022-08-19T09:59:27;27.70;92.30
57552;DHT22;43379;48.160;14.036;2022-08-19T10:01:53;28.20;92.10
57552;DHT22;43379;48.160;14.036;2022-08-19T10:04:19;28.60;91.70
57552;DHT22;43379;48.160;14.036;2022-08-19T10:06:46;28.80;91.00
57552;DHT22;43379;48.160;14.036;2022-08-19T10:09:14;29.10;90.60
57552;DHT22;43379;48.160;14.036;2022-08-19T10:11:42;29.70;90.20
57552;DHT22;43379;48.160;14.036;2022-08-19T10:14:09;30.00;88.30
57552;DHT22;43379;48.160;14.036;2022-08-19T10:16:36;30.50;88.10
57552;DHT22;43379;48.160;14.036;2022-08-19T10:19:03;30.90;86.80
57552;DHT22;43379;48.160;14.036;2022-08-19T10:21:30;31.20;84.90
57552;DHT22;43379;48.160;14.036;2022-08-19T10:23:58;31.20;83.20
57552;DHT22;43379;48.160;14.036;2022-08-19T10:26:28;31.30;83.10
57552;DHT22;43379;48.160;14.036;2022-08-19T10:28:55;31.50;81.60
57552;DHT22;43379;48.160;14.036;2022-08-19T10:31:26;31.90;83.00
57552;DHT22;43379;48.160;14.036;2022-08-19T10:33:52;32.10;81.50
57552;DHT22;43379;48.160;14.036;2022-08-19T10:36:26;32.10;78.40
57552;DHT22;43379;48.160;14.036;2022-08-19T10:38:54;31.90;78.90
57552;DHT22;43379;48.160;14.036;2022-08-19T10:41:25;31.60;78.80
57552;DHT22;43379;48.160;14.036;2022-08-19T10:43:52;31.20;79.30
57552;DHT22;43379;48.160;14.036;2022-08-19T10:46:21;31.10;80.80
57552;DHT22;43379;48.160;14.036;2022-08-19T10:48:48;31.20;81.40
57552;DHT22;43379;48.160;14.036;2022-08-19T10:51:14;31.40;81.70
57552;DHT22;43379;48.160;14.036;2022-08-19T10:53:59;31.40;80.80
57552;DHT22;43379;48.160;14.036;2022-08-19T10:56:26;31.40;81.40
57552;DHT22;43379;48.160;14.036;2022-08-19T10:59:10;31.20;80.60
57552;DHT22;43379;48.160;14.036;2022-08-19T11:01:37;30.80;81.80
57552;DHT22;43379;48.160;14.036;2022-08-19T11:04:04;30.70;81.20
57552;DHT22;43379;48.160;14.036;2022-08-19T11:06:33;30.40;80.90
57552;DHT22;43379;48.160;14.036;2022-08-19T11:08:59;30.10;81.90
57552;DHT22;43379;48.160;14.036;2022-08-19T11:11:26;29.70;83.00
57552;DHT22;43379;48.160;14.036;2022-08-19T11:13:52;29.80;84.70
57552;DHT22;43379;48.160;14.036;2022-08-19T11:16:22;30.10;86.40
57552;DHT22;43379;48.160;14.036;2022-08-19T11:18:52;30.10;81.70
57552;DHT22;43379;48.160;14.036;2022-08-19T11:21:26;29.90;81.80
57552;DHT22;43379;48.160;14.036;2022-08-19T11:23:56;29.90;81.90
57552;DHT22;43379;48.160;14.036;2022-08-19T11:26:22;30.10;84.30
57552;DHT22;43379;48.160;14.036;2022-08-19T11:28:49;30.50;83.90
57552;DHT22;43379;48.160;14.036;2022-08-19T11:31:20;30.70;84.10
57552;DHT22;43379;48.160;14.036;2022-08-19T11:33:46;30.70;80.40
57552;DHT22;43379;48.160;14.036;2022-08-19T11:36:16;30.70;81.10
57552;DHT22;43379;48.160;14.036;2022-08-19T11:38:41;30.70;80.50
57552;DHT22;43379;48.160;14.036;2022-08-19T11:41:08;30.50;80.70
57552;DHT22;43379;48.160;14.036;2022-08-19T11:43:35;30.70;81.90
57552;DHT22;43379;48.160;14.036;2022-08-19T11:46:07;30.80;80.40
57552;DHT22;43379;48.160;14.036;2022-08-19T11:48:34;30.80;79.80
57552;DHT22;43379;48.160;14.036;2022-08-19T11:51:04;30.60;79.30
57552;DHT22;43379;48.160;14.036;2022-08-19T11:53:32;30.40;80.10
57552;DHT22;43379;48.160;14.036;2022-08-19T11:55:58;30.50;81.20
57552;DHT22;43379;48.160;14.036;2022-08-19T11:58:23;30.60;80.90
57552;DHT22;43379;48.160;14.036;2022-08-19T12:00:51;30.60;80.40
57552;DHT22;43379;48.160;14.036;2022-08-19T12:03:17;30.70;81.20
57552;DHT22;43379;48.160;14.036;2022-08-19T12:05:45;30.70;80.90
57552;DHT22;43379;48.160;14.036;2022-08-19T12:08:11;30.50;79.50
57552;DHT22;43379;48.160;14.036;2022-08-19T12:10:39;30.40;79.90
57552;DHT22;43379;48.160;14.036;2022-08-19T12:13:05;30.20;81.00
57552;DHT22;43379;48.160;14.036;2022-08-19T12:15:36;30.10;81.40
57552;DHT22;43379;48.160;14.036;2022-08-19T12:18:03;29.90;81.40
57552;DHT22;43379;48.160;14.036;2022-08-19T12:20:29;30.00;81.30
57552;DHT22;43379;48.160;14.036;2022-08-19T12:22:54;29.80;81.30
57552;DHT22;43379;48.160;14.036;2022-08-19T12:25:20;29.60;80.10
57552;DHT22;43379;48.160;14.036;2022-08-19T12:27:46;29.50;80.00
57552;DHT22;43379;48.160;14.036;2022-08-19T12:30:13;29.40;80.50
57552;DHT22;43379;48.160;14.036;2022-08-19T12:32:40;29.40;80.80
57552;DHT22;43379;48.160;14.036;2022-08-19T12:35:07;29.40;80.80
57552;DHT22;43379;48.160;14.036;2022-08-19T12:37:34;29.20;80.10
57552;DHT22;43379;48.160;14.036;2022-08-19T12:40:00;29.20;80.10
57552;DHT22;43379;48.160;14.036;2022-08-19T12:42:26;29.30;80.90
57552;DHT22;43379;48.160;14.036;2022-08-19T12:44:52;29.30;80.80
57552;DHT22;43379;48.160;14.036;2022-08-19T12:47:18;29.20;80.90
57552;DHT22;43379;48.160;14.036;2022-08-19T12:49:44;29.20;81.40
57552;DHT22;43379;48.160;14.036;2022-08-19T12:52:11;29.30;81.70
57552;DHT22;43379;48.160;14.036;2022-08-19T12:54:40;29.40;80.80
57552;DHT22;43379;48.160;14.036;2022-08-19T12:57:08;29.60;82.20
57552;DHT22;43379;48.160;14.036;2022-08-19T12:59:36;29.50;78.30
57552;DHT22;43379;48.160;14.036;2022-08-19T13:02:03;29.50;80.10
57552;DHT22;43379;48.160;14.036;2022-08-19T13:04:32;29.50;80.10
57552;DHT22;43379;48.160;14.036;2022-08-19T13:07:01;29.50;79.00
57552;DHT22;43379;48.160;14.036;2022-08-19T13:09:27;29.60;80.30
57552;DHT22;43379;48.160;14.036;2022-08-19T13:11:52;29.90;82.50
57552;DHT22;43379;48.160;14.036;2022-08-19T13:14:18;30.00;81.20
57552;DHT22;43379;48.160;14.036;2022-08-19T13:16:44;30.30;82.60
57552;DHT22;43379;48.160;14.036;2022-08-19T13:19:09;30.40;82.10
57552;DHT22;43379;48.160;14.036;2022-08-19T13:21:37;30.60;80.10
57552;DHT22;43379;48.160;14.036;2022-08-19T13:24:03;30.70;79.70
57552;DHT22;43379;48.160;14.036;2022-08-19T13:26:29;30.70;79.30
57552;DHT22;43379;48.160;14.036;2022-08-19T13:28:54;30.70;77.30
57552;DHT22;43379;48.160;14.036;2022-08-19T13:31:41;30.60;76.60
57552;DHT22;43379;48.160;14.036;2022-08-19T13:34:33;30.40;77.50
57552;DHT22;43379;48.160;14.036;2022-08-19T13:37:02;30.40;77.80
57552;DHT22;43379;48.160;14.036;2022-08-19T13:39:32;30.40;76.60
57552;DHT22;43379;48.160;14.036;2022-08-19T13:41:59;30.30;76.80
57552;DHT22;43379;48.160;14.036;2022-08-19T13:44:26;30.20;76.60
57552;DHT22;43379;48.160;14.036;2022-08-19T13:46:55;30.20;76.80
57552;DHT22;43379;48.160;14.036;2022-08-19T13:49:28;30.20;77.10
57552;DHT22;43379;48.160;14.036;2022-08-19T13:51:56;30.30;76.50
57552;DHT22;43379;48.160;14.036;2022-08-19T13:54:22;30.30;78.40
57552;DHT22;43379;48.160;14.036;2022-08-19T13:56:48;30.30;78.00
57552;DHT22;43379;48.160;14.036;2022-08-19T13:59:13;30.10;76.10
57552;DHT22;43379;48.160;14.036;2022-08-19T14:01:40;30.20;77.70
57552;DHT22;43379;48.160;14.036;2022-08-19T14:04:07;30.20;77.40
57552;DHT22;43379;48.160;14.036;2022-08-19T14:06:33;30.20;76.50
57552;DHT22;43379;48.160;14.036;2022-08-19T14:08:59;30.20;76.10
57552;DHT22;43379;48.160;14.036;2022-08-19T14:11:25;30.10;75.30
57552;DHT22;43379;48.160;14.036;2022-08-19T14:13:51;30.00;75.60
57552;DHT22;43379;48.160;14.036;2022-08-19T14:16:17;30.10;77.50
57552;DHT22;43379;48.160;14.036;2022-08-19T14:18:43;30.20;77.10
57552;DHT22;43379;48.160;14.036;2022-08-19T14:21:17;30.20;76.80
57552;DHT22;43379;48.160;14.036;2022-08-19T14:23:46;30.30;77.30
57552;DHT22;43379;48.160;14.036;2022-08-19T14:26:13;30.30;78.10
57552;DHT22;43379;48.160;14.036;2022-08-19T14:28:40;30.40;77.90
57552;DHT22;43379;48.160;14.036;2022-08-19T14:31:08;30.40;76.70
57552;DHT22;43379;48.160;14.036;2022-08-19T14:33:33;30.40;76.50
57552;DHT22;43379;48.160;14.036;2022-08-19T14:35:59;30.20;76.00
57552;DHT22;43379;48.160;14.036;2022-08-19T14:38:26;30.00;75.20
57552;DHT22;43379;48.160;14.036;2022-08-19T14:40:52;29.70;75.50
57552;DHT22;43379;48.160;14.036;2022-08-19T14:43:18;29.40;76.00
57552;DHT22;43379;48.160;14.036;2022-08-19T14:45:44;29.30;76.50
57552;DHT22;43379;48.160;14.036;2022-08-19T14:48:09;29.30;76.50
57552;DHT22;43379;48.160;14.036;2022-08-19T14:50:36;29.10;76.40
57552;DHT22;43379;48.160;14.036;2022-08-19T14:53:11;29.00;77.20
57552;DHT22;43379;48.160;14.036;2022-08-19T14:55:41;28.70;71.40
57552;DHT22;43379;48.160;14.036;2022-08-19T14:58:07;28.10;69.30
57552;DHT22;43379;48.160;14.036;2022-08-19T15:00:34;27.60;68.50
57552;DHT22;43379;48.160;14.036;2022-08-19T15:02:59;27.20;69.90
57552;DHT22;43379;48.160;14.036;2022-08-19T15:05:25;26.60;73.10
57552;DHT22;43379;48.160;14.036;2022-08-19T15:07:52;26.10;76.10
57552;DHT22;43379;48.160;14.036;2022-08-19T15:10:19;25.70;78.90
57552;DHT22;43379;48.160;14.036;2022-08-19T15:12:46;25.30;83.10
57552;DHT22;43379;48.160;14.036;2022-08-19T15:15:13;24.80;87.40
57552;DHT22;43379;48.160;14.036;2022-08-19T15:17:41;24.40;89.60
57552;DHT22;43379;48.160;14.036;2022-08-19T15:20:08;24.00;91.50
57552;DHT22;43379;48.160;14.036;2022-08-19T15:22:34;23.80;91.90
57552;DHT22;43379;48.160;14.036;2022-08-19T15:25:01;23.60;92.60
57552;DHT22;43379;48.160;14.036;2022-08-19T15:27:27;23.50;92.80
57552;DHT22;43379;48.160;14.036;2022-08-19T15:29:53;23.30;93.70
57552;DHT22;43379;48.160;14.036;2022-08-19T15:32:18;23.30;94.60
57552;DHT22;43379;48.160;14.036;2022-08-19T15:34:44;23.10;95.20
57552;DHT22;43379;48.160;14.036;2022-08-19T15:37:10;23.00;95.90